sensor_id;sensor_type;location;lat;lon;timestamp;temperature;humidity
24412;DHT22;12544;46.760;15.942;2022-08-21T00:00:24;20.40;99.90
24412;DHT22;12544;46.760;15.942;2022-08-21T00:02:51;20.40;99.90
24412;DHT22;12544;46.760;15.942;2022-08-21T00:05:17;20.40;99.90
24412;DHT22;12544;46.760;15.942;2022-08-21T00:07:43;20.40;99.90
24412;DHT22;12544;46.760;15.942;2022-08-21T00:10:09;20.40;99.90
24412;DHT22;12544;46.760;15.942;2022-08-21T00:12:34;20.40;99.90
24412;DHT22;12544;46.760;15.942;2022-08-21T00:15:00;20.40;99.90
24412;DHT22;12544;46.760;15.942;2022-08-21T00:17:25;20.40;99.90
24412;DHT22;12544;46.760;15.942;2022-08-21T00:19:51;20.40;99.90
24412;DHT22;12544;46.760;15.942;2022-08-21T00:22:16;20.40;99.90
24412;DHT22;12544;46.760;15.942;2022-08-21T00:24:42;20.40;99.90
24412;DHT22;12544;46.760;15.942;2022-08-21T00:27:10;20.40;99.90
24412;DHT22;12544;46.760;15.942;2022-08-21T00:29:35;20.40;99.90
24412;DHT22;12544;46.760;15.942;2022-08-21T00:32:01;20.40;99.90
24412;DHT22;12544;46.760;15.942;2022-08-21T00:34:26;20.30;99.90
24412;DHT22;12544;46.760;15.942;2022-08-21T00:36:52;20.30;99.90
24412;DHT22;12544;46.760;15.942;2022-08-21T00:39:17;20.30;99.90
24412;DHT22;12544;46.760;15.942;2022-08-21T00:41:43;20.30;99.90
24412;DHT22;12544;46.760;15.942;2022-08-21T00:44:11;20.30;99.90
24412;DHT22;12544;46.760;15.942;2022-08-21T00:46:37;20.30;99.90
24412;DHT22;12544;46.760;15.942;2022-08-21T00:49:03;20.30;99.90
24412;DHT22;12544;46.760;15.942;2022-08-21T00:51:37;20.30;99.90
24412;DHT22;12544;46.760;15.942;2022-08-21T00:54:03;20.20;99.90
24412;DHT22;12544;46.760;15.942;2022-08-21T00:56:28;20.20;99.90
24412;DHT22;12544;46.760;15.942;2022-08-21T00:58:54;20.10;99.90
24412;DHT22;12544;46.760;15.942;2022-08-21T01:01:20;20.00;99.90
24412;DHT22;12544;46.760;15.942;2022-08-21T01:03:46;20.00;99.90
24412;DHT22;12544;46.760;15.942;2022-08-21T01:06:12;19.90;99.90
24412;DHT22;12544;46.760;15.942;2022-08-21T01:08:37;19.80;99.90
24412;DHT22;12544;46.760;15.942;2022-08-21T01:11:06;19.80;99.90
24412;DHT22;12544;46.760;15.942;2022-08-21T01:13:32;19.70;99.90
24412;DHT22;12544;46.760;15.942;2022-08-21T01:15:59;19.70;99.90
24412;DHT22;12544;46.760;15.942;2022-08-21T01:18:26;19.70;99.90
24412;DHT22;12544;46.760;15.942;2022-08-21T01:23:27;19.70;99.90
24412;DHT22;12544;46.760;15.942;2022-08-21T01:25:54;19.60;99.90
24412;DHT22;12544;46.760;15.942;2022-08-21T01:28:19;19.60;99.90
24412;DHT22;12544;46.760;15.942;2022-08-21T01:30:46;19.60;99.90
24412;DHT22;12544;46.760;15.942;2022-08-21T01:33:12;19.60;99.90
24412;DHT22;12544;46.760;15.942;2022-08-21T01:35:37;19.60;99.90
24412;DHT22;12544;46.760;15.942;2022-08-21T01:38:03;19.50;99.90
24412;DHT22;12544;46.760;15.942;2022-08-21T01:40:29;19.50;99.90
24412;DHT22;12544;46.760;15.942;2022-08-21T01:42:55;19.50;99.90
24412;DHT22;12544;46.760;15.942;2022-08-21T01:45:20;19.50;99.90
24412;DHT22;12544;46.760;15.942;2022-08-21T01:47:46;19.50;99.90
24412;DHT22;12544;46.760;15.942;2022-08-21T01:50:13;19.50;99.90
24412;DHT22;12544;46.760;15.942;2022-08-21T01:52:39;19.40;99.90
24412;DHT22;12544;46.760;15.942;2022-08-21T01:55:06;19.40;99.90
24412;DHT22;12544;46.760;15.942;2022-08-21T01:57:32;19.30;99.90
24412;DHT22;12544;46.760;15.942;2022-08-21T01:59:58;19.40;99.90
24412;DHT22;12544;46.760;15.942;2022-08-21T02:02:23;19.30;99.90
24412;DHT22;12544;46.760;15.942;2022-08-21T02:04:49;19.30;99.90
24412;DHT22;12544;46.760;15.942;2022-08-21T02:07:14;19.40;99.90
24412;DHT22;12544;46.760;15.942;2022-08-21T02:09:45;19.30;99.90
24412;DHT22;12544;46.760;15.942;2022-08-21T02:12:11;19.40;99.90
24412;DHT22;12544;46.760;15.942;2022-08-21T02:14:36;19.40;99.90
24412;DHT22;12544;46.760;15.942;2022-08-21T02:17:02;19.40;99.90
24412;DHT22;12544;46.760;15.942;2022-08-21T02:19:28;19.30;99.90
24412;DHT22;12544;46.760;15.942;2022-08-21T02:21:53;19.30;99.90
24412;DHT22;12544;46.760;15.942;2022-08-21T02:24:19;19.30;99.90
24412;DHT22;12544;46.760;15.942;2022-08-21T02:26:44;19.30;99.90
24412;DHT22;12544;46.760;15.942;2022-08-21T02:29:10;19.30;99.90
24412;DHT22;12544;46.760;15.942;2022-08-21T02:34:05;19.20;99.90
24412;DHT22;12544;46.760;15.942;2022-08-21T02:36:30;19.20;99.90
24412;DHT22;12544;46.760;15.942;2022-08-21T02:38:56;19.20;99.90
24412;DHT22;12544;46.760;15.942;2022-08-21T02:41:22;19.10;99.90
24412;DHT22;12544;46.760;15.942;2022-08-21T02:43:48;19.00;99.90
24412;DHT22;12544;46.760;15.942;2022-08-21T02:46:14;19.00;99.90
24412;DHT22;12544;46.760;15.942;2022-08-21T02:48:40;18.90;99.90
24412;DHT22;12544;46.760;15.942;2022-08-21T02:51:08;18.80;99.90
24412;DHT22;12544;46.760;15.942;2022-08-21T02:53:34;18.80;99.90
24412;DHT22;12544;46.760;15.942;2022-08-21T02:56:01;18.80;99.90
24412;DHT22;12544;46.760;15.942;2022-08-21T02:58:29;18.90;99.90
24412;DHT22;12544;46.760;15.942;2022-08-21T03:00:56;18.90;99.90
24412;DHT22;12544;46.760;15.942;2022-08-21T03:03:30;18.80;99.90
24412;DHT22;12544;46.760;15.942;2022-08-21T03:05:55;18.80;99.90
24412;DHT22;12544;46.760;15.942;2022-08-21T03:08:21;18.80;99.90
24412;DHT22;12544;46.760;15.942;2022-08-21T03:10:49;18.70;99.90
24412;DHT22;12544;46.760;15.942;2022-08-21T03:13:15;18.70;99.90
24412;DHT22;12544;46.760;15.942;2022-08-21T03:15:41;18.80;99.90
24412;DHT22;12544;46.760;15.942;2022-08-21T03:18:08;18.80;99.90
24412;DHT22;12544;46.760;15.942;2022-08-21T03:20:34;18.80;99.90
24412;DHT22;12544;46.760;15.942;2022-08-21T03:23:00;18.80;99.90
24412;DHT22;12544;46.760;15.942;2022-08-21T03:25:38;18.80;99.90
24412;DHT22;12544;46.760;15.942;2022-08-21T03:28:05;18.80;99.90
24412;DHT22;12544;46.760;15.942;2022-08-21T03:30:31;18.80;99.90
24412;DHT22;12544;46.760;15.942;2022-08-21T03:32:57;18.70;99.90
24412;DHT22;12544;46.760;15.942;2022-08-21T03:35:24;18.70;99.90
24412;DHT22;12544;46.760;15.942;2022-08-21T03:37:50;18.70;99.90
24412;DHT22;12544;46.760;15.942;2022-08-21T03:40:16;18.80;99.90
24412;DHT22;12544;46.760;15.942;2022-08-21T03:42:42;18.90;99.90
24412;DHT22;12544;46.760;15.942;2022-08-21T03:45:11;18.90;99.90
24412;DHT22;12544;46.760;15.942;2022-08-21T03:47:36;18.90;99.90
24412;DHT22;12544;46.760;15.942;2022-08-21T03:50:04;18.90;99.90
24412;DHT22;12544;46.760;15.942;2022-08-21T03:52:30;19.00;99.90
24412;DHT22;12544;46.760;15.942;2022-08-21T03:54:56;19.00;99.90
24412;DHT22;12544;46.760;15.942;2022-08-21T03:57:21;18.90;99.90
24412;DHT22;12544;46.760;15.942;2022-08-21T03:59:47;18.90;99.90
24412;DHT22;12544;46.760;15.942;2022-08-21T04:02:13;18.80;99.90
24412;DHT22;12544;46.760;15.942;2022-08-21T04:04:41;18.70;99.90
24412;DHT22;12544;46.760;15.942;2022-08-21T04:07:06;18.60;99.90
24412;DHT22;12544;46.760;15.942;2022-08-21T04:09:32;18.60;99.90
24412;DHT22;12544;46.760;15.942;2022-08-21T04:11:58;18.60;99.90
24412;DHT22;12544;46.760;15.942;2022-08-21T04:14:24;18.50;99.90
24412;DHT22;12544;46.760;15.942;2022-08-21T04:16:49;18.40;99.90
24412;DHT22;12544;46.760;15.942;2022-08-21T04:19:15;18.40;99.90
24412;DHT22;12544;46.760;15.942;2022-08-21T04:21:40;18.30;99.90
24412;DHT22;12544;46.760;15.942;2022-08-21T04:24:07;18.30;99.90
24412;DHT22;12544;46.760;15.942;2022-08-21T04:26:33;18.40;99.90
24412;DHT22;12544;46.760;15.942;2022-08-21T04:28:59;18.40;99.90
24412;DHT22;12544;46.760;15.942;2022-08-21T04:31:25;18.40;99.90
24412;DHT22;12544;46.760;15.942;2022-08-21T04:33:50;18.50;99.90
24412;DHT22;12544;46.760;15.942;2022-08-21T04:38:45;18.50;99.90
24412;DHT22;12544;46.760;15.942;2022-08-21T04:41:11;18.50;99.90
24412;DHT22;12544;46.760;15.942;2022-08-21T04:43:37;18.50;99.90
24412;DHT22;12544;46.760;15.942;2022-08-21T04:46:03;18.50;99.90
24412;DHT22;12544;46.760;15.942;2022-08-21T04:48:34;18.60;99.90
24412;DHT22;12544;46.760;15.942;2022-08-21T04:51:09;18.50;99.90
24412;DHT22;12544;46.760;15.942;2022-08-21T04:56:02;18.50;99.90
24412;DHT22;12544;46.760;15.942;2022-08-21T04:58:29;18.50;99.90
24412;DHT22;12544;46.760;15.942;2022-08-21T05:00:58;18.50;99.90
24412;DHT22;12544;46.760;15.942;2022-08-21T05:03:24;18.30;99.90
24412;DHT22;12544;46.760;15.942;2022-08-21T05:05:50;18.30;99.90
24412;DHT22;12544;46.760;15.942;2022-08-21T05:08:16;18.30;99.90
24412;DHT22;12544;46.760;15.942;2022-08-21T05:10:43;18.30;99.90
24412;DHT22;12544;46.760;15.942;2022-08-21T05:13:09;18.30;99.90
24412;DHT22;12544;46.760;15.942;2022-08-21T05:15:36;18.40;99.90
24412;DHT22;12544;46.760;15.942;2022-08-21T05:18:03;18.50;99.90
24412;DHT22;12544;46.760;15.942;2022-08-21T05:20:29;18.60;99.90
24412;DHT22;12544;46.760;15.942;2022-08-21T05:22:54;18.60;99.90
24412;DHT22;12544;46.760;15.942;2022-08-21T05:25:20;18.70;99.90
24412;DHT22;12544;46.760;15.942;2022-08-21T05:27:53;18.80;99.90
24412;DHT22;12544;46.760;15.942;2022-08-21T05:30:19;18.80;99.90
24412;DHT22;12544;46.760;15.942;2022-08-21T05:32:45;18.90;99.90
24412;DHT22;12544;46.760;15.942;2022-08-21T05:35:12;19.00;99.90
24412;DHT22;12544;46.760;15.942;2022-08-21T05:37:38;19.10;99.90
24412;DHT22;12544;46.760;15.942;2022-08-21T05:40:04;19.20;99.90
24412;DHT22;12544;46.760;15.942;2022-08-21T05:42:31;19.30;99.90
24412;DHT22;12544;46.760;15.942;2022-08-21T05:44:56;19.30;99.90
24412;DHT22;12544;46.760;15.942;2022-08-21T05:47:22;19.40;99.90
24412;DHT22;12544;46.760;15.942;2022-08-21T05:49:47;19.40;99.90
24412;DHT22;12544;46.760;15.942;2022-08-21T05:52:17;19.50;99.90
24412;DHT22;12544;46.760;15.942;2022-08-21T05:54:43;19.60;99.90
24412;DHT22;12544;46.760;15.942;2022-08-21T05:57:09;19.60;99.90
24412;DHT22;12544;46.760;15.942;2022-08-21T05:59:34;19.60;99.90
24412;DHT22;12544;46.760;15.942;2022-08-21T06:02:01;19.70;99.90
24412;DHT22;12544;46.760;15.942;2022-08-21T06:04:26;19.70;99.90
24412;DHT22;12544;46.760;15.942;2022-08-21T06:06:52;19.80;99.90
24412;DHT22;12544;46.760;15.942;2022-08-21T06:09:18;19.80;99.90
24412;DHT22;12544;46.760;15.942;2022-08-21T06:11:43;19.90;99.90
24412;DHT22;12544;46.760;15.942;2022-08-21T06:14:09;20.00;99.90
24412;DHT22;12544;46.760;15.942;2022-08-21T06:16:34;20.00;99.90
24412;DHT22;12544;46.760;15.942;2022-08-21T06:19:00;20.10;99.90
24412;DHT22;12544;46.760;15.942;2022-08-21T06:21:25;20.10;99.90
24412;DHT22;12544;46.760;15.942;2022-08-21T06:23:51;20.20;99.90
24412;DHT22;12544;46.760;15.942;2022-08-21T06:26:16;20.20;99.90
24412;DHT22;12544;46.760;15.942;2022-08-21T06:28:44;20.20;99.90
24412;DHT22;12544;46.760;15.942;2022-08-21T06:31:11;20.30;99.90
24412;DHT22;12544;46.760;15.942;2022-08-21T06:33:36;20.30;99.90
24412;DHT22;12544;46.760;15.942;2022-08-21T06:36:02;20.30;99.90
24412;DHT22;12544;46.760;15.942;2022-08-21T06:38:28;20.40;99.90
24412;DHT22;12544;46.760;15.942;2022-08-21T06:40:53;20.50;99.90
24412;DHT22;12544;46.760;15.942;2022-08-21T06:43:19;20.60;99.90
24412;DHT22;12544;46.760;15.942;2022-08-21T06:45:44;20.60;99.90
24412;DHT22;12544;46.760;15.942;2022-08-21T06:48:10;20.60;99.90
24412;DHT22;12544;46.760;15.942;2022-08-21T06:50:36;20.60;99.90
24412;DHT22;12544;46.760;15.942;2022-08-21T06:53:05;20.70;99.90
24412;DHT22;12544;46.760;15.942;2022-08-21T06:55:31;20.70;99.90
24412;DHT22;12544;46.760;15.942;2022-08-21T06:57:57;20.70;99.90
24412;DHT22;12544;46.760;15.942;2022-08-21T07:00:22;20.80;99.90
24412;DHT22;12544;46.760;15.942;2022-08-21T07:02:48;20.90;99.90
24412;DHT22;12544;46.760;15.942;2022-08-21T07:05:13;20.90;99.90
24412;DHT22;12544;46.760;15.942;2022-08-21T07:07:39;21.00;99.90
24412;DHT22;12544;46.760;15.942;2022-08-21T07:10:05;21.00;99.90
24412;DHT22;12544;46.760;15.942;2022-08-21T07:12:30;21.10;99.90
24412;DHT22;12544;46.760;15.942;2022-08-21T07:14:56;21.10;99.90
24412;DHT22;12544;46.760;15.942;2022-08-21T07:17:22;21.00;99.90
24412;DHT22;12544;46.760;15.942;2022-08-21T07:19:47;21.10;99.90
24412;DHT22;12544;46.760;15.942;2022-08-21T07:22:13;21.10;99.90
24412;DHT22;12544;46.760;15.942;2022-08-21T07:24:42;21.20;99.90
24412;DHT22;12544;46.760;15.942;2022-08-21T07:27:07;21.20;99.90
24412;DHT22;12544;46.760;15.942;2022-08-21T07:29:33;21.20;99.90
24412;DHT22;12544;46.760;15.942;2022-08-21T07:31:58;21.30;99.90
24412;DHT22;12544;46.760;15.942;2022-08-21T07:34:24;21.50;99.90
24412;DHT22;12544;46.760;15.942;2022-08-21T07:36:49;21.60;99.90
24412;DHT22;12544;46.760;15.942;2022-08-21T07:39:15;21.70;99.90
24412;DHT22;12544;46.760;15.942;2022-08-21T07:41:41;21.70;99.90
24412;DHT22;12544;46.760;15.942;2022-08-21T07:44:06;21.80;99.90
24412;DHT22;12544;46.760;15.942;2022-08-21T07:46:32;21.90;99.90
24412;DHT22;12544;46.760;15.942;2022-08-21T07:48:58;21.90;99.90
24412;DHT22;12544;46.760;15.942;2022-08-21T07:51:24;22.00;99.90
24412;DHT22;12544;46.760;15.942;2022-08-21T07:53:51;22.20;99.90
24412;DHT22;12544;46.760;15.942;2022-08-21T07:56:17;22.30;99.90
24412;DHT22;12544;46.760;15.942;2022-08-21T07:58:43;22.30;99.90
24412;DHT22;12544;46.760;15.942;2022-08-21T08:01:08;22.40;99.90
24412;DHT22;12544;46.760;15.942;2022-08-21T08:03:34;22.50;99.90
24412;DHT22;12544;46.760;15.942;2022-08-21T08:05:59;22.50;99.90
24412;DHT22;12544;46.760;15.942;2022-08-21T08:08:25;22.60;99.90
24412;DHT22;12544;46.760;15.942;2022-08-21T08:10:51;22.70;99.90
24412;DHT22;12544;46.760;15.942;2022-08-21T08:13:17;22.80;99.90
24412;DHT22;12544;46.760;15.942;2022-08-21T08:15:42;22.90;99.90
24412;DHT22;12544;46.760;15.942;2022-08-21T08:18:08;23.00;99.90
24412;DHT22;12544;46.760;15.942;2022-08-21T08:20:33;23.00;99.90
24412;DHT22;12544;46.760;15.942;2022-08-21T08:22:59;23.20;99.90
24412;DHT22;12544;46.760;15.942;2022-08-21T08:25:25;23.40;99.90
24412;DHT22;12544;46.760;15.942;2022-08-21T08:27:51;23.40;99.90
24412;DHT22;12544;46.760;15.942;2022-08-21T08:30:17;23.30;99.90
24412;DHT22;12544;46.760;15.942;2022-08-21T08:32:43;23.40;99.90
24412;DHT22;12544;46.760;15.942;2022-08-21T08:35:10;23.40;99.90
24412;DHT22;12544;46.760;15.942;2022-08-21T08:37:37;23.40;99.90
24412;DHT22;12544;46.760;15.942;2022-08-21T08:40:03;23.40;99.90
24412;DHT22;12544;46.760;15.942;2022-08-21T08:42:33;23.40;99.90
24412;DHT22;12544;46.760;15.942;2022-08-21T08:47:28;23.60;99.90
24412;DHT22;12544;46.760;15.942;2022-08-21T08:49:55;23.60;99.90
24412;DHT22;12544;46.760;15.942;2022-08-21T08:52:29;23.60;99.90
24412;DHT22;12544;46.760;15.942;2022-08-21T08:57:48;23.70;99.90
24412;DHT22;12544;46.760;15.942;2022-08-21T09:00:16;23.70;99.90
24412;DHT22;12544;46.760;15.942;2022-08-21T09:02:43;23.70;99.90
24412;DHT22;12544;46.760;15.942;2022-08-21T09:05:15;23.80;99.90
24412;DHT22;12544;46.760;15.942;2022-08-21T09:10:43;23.90;99.90
24412;DHT22;12544;46.760;15.942;2022-08-21T09:13:21;23.90;99.90
24412;DHT22;12544;46.760;15.942;2022-08-21T09:16:01;24.00;99.90
24412;DHT22;12544;46.760;15.942;2022-08-21T09:21:02;24.10;99.90
24412;DHT22;12544;46.760;15.942;2022-08-21T09:23:46;24.20;99.90
24412;DHT22;12544;46.760;15.942;2022-08-21T09:26:17;24.20;99.90
24412;DHT22;12544;46.760;15.942;2022-08-21T09:28:43;24.30;99.90
24412;DHT22;12544;46.760;15.942;2022-08-21T09:33:58;24.60;99.90
24412;DHT22;12544;46.760;15.942;2022-08-21T09:36:25;24.60;99.90
24412;DHT22;12544;46.760;15.942;2022-08-21T09:38:55;24.60;99.90
24412;DHT22;12544;46.760;15.942;2022-08-21T09:41:26;24.70;99.90
24412;DHT22;12544;46.760;15.942;2022-08-21T09:43:52;24.80;99.90
24412;DHT22;12544;46.760;15.942;2022-08-21T09:46:22;24.80;99.90
24412;DHT22;12544;46.760;15.942;2022-08-21T09:48:49;24.90;99.90
24412;DHT22;12544;46.760;15.942;2022-08-21T09:51:16;25.00;99.90
24412;DHT22;12544;46.760;15.942;2022-08-21T09:53:46;25.00;99.90
24412;DHT22;12544;46.760;15.942;2022-08-21T09:59:28;25.00;99.90
24412;DHT22;12544;46.760;15.942;2022-08-21T10:01:56;25.20;99.90
24412;DHT22;12544;46.760;15.942;2022-08-21T10:04:23;25.20;99.00
24412;DHT22;12544;46.760;15.942;2022-08-21T10:06:49;25.20;98.60
24412;DHT22;12544;46.760;15.942;2022-08-21T10:09:16;25.20;98.50
24412;DHT22;12544;46.760;15.942;2022-08-21T10:12:44;25.20;97.90
24412;DHT22;12544;46.760;15.942;2022-08-21T10:14:44;25.10;97.40
24412;DHT22;12544;46.760;15.942;2022-08-21T10:20:01;25.00;96.90
24412;DHT22;12544;46.760;15.942;2022-08-21T10:25:16;25.00;96.20
24412;DHT22;12544;46.760;15.942;2022-08-21T10:30:35;25.00;95.90
24412;DHT22;12544;46.760;15.942;2022-08-21T10:35:32;24.80;96.50
24412;DHT22;12544;46.760;15.942;2022-08-21T10:48:14;24.60;96.60
24412;DHT22;12544;46.760;15.942;2022-08-21T10:53:16;24.70;96.90
24412;DHT22;12544;46.760;15.942;2022-08-21T10:55:47;24.80;96.50
24412;DHT22;12544;46.760;15.942;2022-08-21T10:58:21;24.90;96.30
24412;DHT22;12544;46.760;15.942;2022-08-21T11:00:51;25.00;96.00
24412;DHT22;12544;46.760;15.942;2022-08-21T11:05:52;24.80;96.70
24412;DHT22;12544;46.760;15.942;2022-08-21T11:10:53;24.90;96.40
24412;DHT22;12544;46.760;15.942;2022-08-21T11:16:03;24.80;95.80
24412;DHT22;12544;46.760;15.942;2022-08-21T11:18:41;24.80;96.00
24412;DHT22;12544;46.760;15.942;2022-08-21T11:24:17;24.70;95.80
24412;DHT22;12544;46.760;15.942;2022-08-21T11:26:30;24.60;96.00
24412;DHT22;12544;46.760;15.942;2022-08-21T11:29:00;24.80;96.80
24412;DHT22;12544;46.760;15.942;2022-08-21T11:31:44;25.00;96.20
24412;DHT22;12544;46.760;15.942;2022-08-21T11:36:47;25.10;96.00
24412;DHT22;12544;46.760;15.942;2022-08-21T11:41:43;25.40;95.70
24412;DHT22;12544;46.760;15.942;2022-08-21T11:44:16;25.40;95.10
24412;DHT22;12544;46.760;15.942;2022-08-21T11:49:25;25.70;94.30
24412;DHT22;12544;46.760;15.942;2022-08-21T12:02:28;25.90;93.20
24412;DHT22;12544;46.760;15.942;2022-08-21T12:04:55;26.00;93.30
24412;DHT22;12544;46.760;15.942;2022-08-21T12:07:42;26.10;93.00
24412;DHT22;12544;46.760;15.942;2022-08-21T12:10:12;26.10;93.30
24412;DHT22;12544;46.760;15.942;2022-08-21T12:12:40;26.20;92.80
24412;DHT22;12544;46.760;15.942;2022-08-21T12:17:54;26.30;91.90
24412;DHT22;12544;46.760;15.942;2022-08-21T12:25:46;26.30;91.30
24412;DHT22;12544;46.760;15.942;2022-08-21T12:28:13;26.20;91.70
24412;DHT22;12544;46.760;15.942;2022-08-21T12:30:48;26.30;92.10
24412;DHT22;12544;46.760;15.942;2022-08-21T12:35:43;26.30;91.00
24412;DHT22;12544;46.760;15.942;2022-08-21T12:38:17;26.00;90.80
24412;DHT22;12544;46.760;15.942;2022-08-21T12:40:46;26.10;92.00
24412;DHT22;12544;46.760;15.942;2022-08-21T12:43:17;26.20;91.40
24412;DHT22;12544;46.760;15.942;2022-08-21T12:45:46;26.10;90.80
24412;DHT22;12544;46.760;15.942;2022-08-21T12:48:20;26.10;91.20
24412;DHT22;12544;46.760;15.942;2022-08-21T12:50:51;26.10;90.80
24412;DHT22;12544;46.760;15.942;2022-08-21T12:53:34;26.10;91.20
24412;DHT22;12544;46.760;15.942;2022-08-21T12:56:02;26.00;91.10
24412;DHT22;12544;46.760;15.942;2022-08-21T12:58:29;25.80;91.30
24412;DHT22;12544;46.760;15.942;2022-08-21T13:01:01;25.80;91.20
24412;DHT22;12544;46.760;15.942;2022-08-21T13:03:27;25.80;91.30
24412;DHT22;12544;46.760;15.942;2022-08-21T13:05:53;25.50;91.00
24412;DHT22;12544;46.760;15.942;2022-08-21T13:08:20;25.50;91.60
24412;DHT22;12544;46.760;15.942;2022-08-21T13:10:46;25.50;91.50
24412;DHT22;12544;46.760;15.942;2022-08-21T13:13:22;25.40;91.40
24412;DHT22;12544;46.760;15.942;2022-08-21T13:15:48;25.30;92.10
24412;DHT22;12544;46.760;15.942;2022-08-21T13:18:22;25.20;91.90
24412;DHT22;12544;46.760;15.942;2022-08-21T13:20:48;25.30;92.40
24412;DHT22;12544;46.760;15.942;2022-08-21T13:23:23;25.30;92.20
24412;DHT22;12544;46.760;15.942;2022-08-21T13:25:49;25.30;92.60
24412;DHT22;12544;46.760;15.942;2022-08-21T13:28:18;25.40;92.40
24412;DHT22;12544;46.760;15.942;2022-08-21T13:30:54;25.60;92.60
24412;DHT22;12544;46.760;15.942;2022-08-21T13:33:22;25.70;92.50
24412;DHT22;12544;46.760;15.942;2022-08-21T13:35:50;25.90;92.70
24412;DHT22;12544;46.760;15.942;2022-08-21T13:38:17;25.90;92.00
24412;DHT22;12544;46.760;15.942;2022-08-21T13:40:51;26.00;92.40
24412;DHT22;12544;46.760;15.942;2022-08-21T13:43:18;26.00;92.60
24412;DHT22;12544;46.760;15.942;2022-08-21T13:45:48;26.00;92.20
24412;DHT22;12544;46.760;15.942;2022-08-21T13:48:14;26.00;91.70
24412;DHT22;12544;46.760;15.942;2022-08-21T13:50:40;26.00;91.90
24412;DHT22;12544;46.760;15.942;2022-08-21T13:53:07;25.90;91.70
24412;DHT22;12544;46.760;15.942;2022-08-21T13:55:43;25.90;91.70
24412;DHT22;12544;46.760;15.942;2022-08-21T13:58:09;25.70;91.40
24412;DHT22;12544;46.760;15.942;2022-08-21T14:00:51;25.80;91.80
24412;DHT22;12544;46.760;15.942;2022-08-21T14:05:55;25.70;92.00
24412;DHT22;12544;46.760;15.942;2022-08-21T14:08:29;25.60;91.90
24412;DHT22;12544;46.760;15.942;2022-08-21T14:10:56;25.60;91.80
24412;DHT22;12544;46.760;15.942;2022-08-21T14:13:40;25.60;91.60
24412;DHT22;12544;46.760;15.942;2022-08-21T14:16:13;25.70;91.80
24412;DHT22;12544;46.760;15.942;2022-08-21T14:18:43;25.60;91.80
24412;DHT22;12544;46.760;15.942;2022-08-21T14:21:09;25.70;91.60
24412;DHT22;12544;46.760;15.942;2022-08-21T14:23:34;25.60;91.20
24412;DHT22;12544;46.760;15.942;2022-08-21T14:26:01;25.50;91.50
24412;DHT22;12544;46.760;15.942;2022-08-21T14:28:28;25.50;91.70
24412;DHT22;12544;46.760;15.942;2022-08-21T14:30:57;25.60;91.20
24412;DHT22;12544;46.760;15.942;2022-08-21T14:33:30;25.50;91.70
24412;DHT22;12544;46.760;15.942;2022-08-21T14:35:59;25.30;91.70
24412;DHT22;12544;46.760;15.942;2022-08-21T14:38:26;25.20;91.50
24412;DHT22;12544;46.760;15.942;2022-08-21T14:40:53;25.20;91.70
24412;DHT22;12544;46.760;15.942;2022-08-21T14:43:19;25.20;91.40
24412;DHT22;12544;46.760;15.942;2022-08-21T14:45:45;25.00;91.00
24412;DHT22;12544;46.760;15.942;2022-08-21T14:48:10;24.90;91.50
24412;DHT22;12544;46.760;15.942;2022-08-21T14:50:43;24.90;91.90
24412;DHT22;12544;46.760;15.942;2022-08-21T14:53:08;24.90;92.20
24412;DHT22;12544;46.760;15.942;2022-08-21T14:55:34;24.90;91.50
24412;DHT22;12544;46.760;15.942;2022-08-21T14:58:18;24.80;91.30
24412;DHT22;12544;46.760;15.942;2022-08-21T15:00:44;24.70;91.40
24412;DHT22;12544;46.760;15.942;2022-08-21T15:03:10;24.60;91.60
24412;DHT22;12544;46.760;15.942;2022-08-21T15:05:35;24.40;92.00
24412;DHT22;12544;46.760;15.942;2022-08-21T15:08:01;24.40;92.20
24412;DHT22;12544;46.760;15.942;2022-08-21T15:10:27;24.40;92.10
24412;DHT22;12544;46.760;15.942;2022-08-21T15:12:52;24.40;92.10
24412;DHT22;12544;46.760;15.942;2022-08-21T15:15:18;24.30;92.60
24412;DHT22;12544;46.760;15.942;2022-08-21T15:17:43;24.40;92.60
24412;DHT22;12544;46.760;15.942;2022-08-21T15:20:09;24.40;92.60
24412;DHT22;12544;46.760;15.942;2022-08-21T15:22:35;24.40;92.30
24412;DHT22;12544;46.760;15.942;2022-08-21T15:25:00;24.30;92.50
24412;DHT22;12544;46.760;15.942;2022-08-21T15:27:26;24.40;92.40
24412;DHT22;12544;46.760;15.942;2022-08-21T15:29:52;24.30;92.30
24412;DHT22;12544;46.760;15.942;2022-08-21T15:32:23;24.30;92.80
24412;DHT22;12544;46.760;15.942;2022-08-21T15:34:50;24.30;92.70
24412;DHT22;12544;46.760;15.942;2022-08-21T15:37:16;24.30;92.50
24412;DHT22;12544;46.760;15.942;2022-08-21T15:39:42;24.30;92.60
24412;DHT22;12544;46.760;15.942;2022-08-21T15:42:07;24.20;92.20
24412;DHT22;12544;46.760;15.942;2022-08-21T15:44:33;24.20;92.40
24412;DHT22;12544;46.760;15.942;2022-08-21T15:46:59;24.10;92.00
24412;DHT22;12544;46.760;15.942;2022-08-21T15:49:24;24.00;92.00
24412;DHT22;12544;46.760;15.942;2022-08-21T15:51:50;24.10;91.70
24412;DHT22;12544;46.760;15.942;2022-08-21T15:54:15;24.10;91.60
24412;DHT22;12544;46.760;15.942;2022-08-21T15:56:42;24.20;91.10
24412;DHT22;12544;46.760;15.942;2022-08-21T15:59:15;24.00;90.00
24412;DHT22;12544;46.760;15.942;2022-08-21T16:01:42;23.90;90.30
24412;DHT22;12544;46.760;15.942;2022-08-21T16:04:07;23.80;90.10
24412;DHT22;12544;46.760;15.942;2022-08-21T16:06:33;23.80;90.20
24412;DHT22;12544;46.760;15.942;2022-08-21T16:08:59;23.80;90.00
24412;DHT22;12544;46.760;15.942;2022-08-21T16:11:25;23.80;90.00
24412;DHT22;12544;46.760;15.942;2022-08-21T16:13:50;23.80;90.40
24412;DHT22;12544;46.760;15.942;2022-08-21T16:16:18;23.70;90.00
24412;DHT22;12544;46.760;15.942;2022-08-21T16:18:44;23.60;93.50
24412;DHT22;12544;46.760;15.942;2022-08-21T16:21:09;23.80;93.70
24412;DHT22;12544;46.760;15.942;2022-08-21T16:23:35;23.70;92.40
24412;DHT22;12544;46.760;15.942;2022-08-21T16:26:03;23.70;90.90
24412;DHT22;12544;46.760;15.942;2022-08-21T16:28:30;23.70;91.90
24412;DHT22;12544;46.760;15.942;2022-08-21T16:30:55;23.80;91.70
24412;DHT22;12544;46.760;15.942;2022-08-21T16:33:26;23.70;92.30
24412;DHT22;12544;46.760;15.942;2022-08-21T16:35:53;23.70;92.50
24412;DHT22;12544;46.760;15.942;2022-08-21T16:38:22;23.70;92.50
24412;DHT22;12544;46.760;15.942;2022-08-21T16:40:48;23.80;92.70
24412;DHT22;12544;46.760;15.942;2022-08-21T16:43:14;24.00;92.20
24412;DHT22;12544;46.760;15.942;2022-08-21T16:45:40;24.10;92.00
24412;DHT22;12544;46.760;15.942;2022-08-21T16:48:05;24.00;92.00